createdAt,value
2018-05-26T17:17:01.399Z,2500
2018-05-26T17:17:41.928Z,2320
2018-05-26T17:18:22.485Z,2240
2018-05-26T17:19:03.066Z,1948
2018-05-26T17:19:43.655Z,2060
2018-05-26T17:20:24.203Z,2236
2018-05-26T17:21:04.772Z,2260
2018-05-26T17:21:45.334Z,2232
2018-05-26T17:22:25.922Z,2160
2018-05-26T17:23:06.544Z,2080
2018-05-26T17:23:47.169Z,1980
2018-05-26T17:24:27.646Z,1584
2018-05-26T17:25:08.227Z,1324
2018-05-26T17:25:48.788Z,1268
2018-05-26T17:26:29.356Z,1240
2018-05-26T17:27:09.912Z,1212
2018-05-26T17:27:50.522Z,1204
2018-05-26T17:28:31.091Z,1208
2018-05-26T17:29:11.660Z,1204
2018-05-26T17:29:52.214Z,1204
2018-05-26T17:30:32.796Z,1304
2018-05-26T17:31:13.349Z,1572
2018-05-26T17:31:53.906Z,1648
2018-05-26T17:32:34.464Z,1692
2018-05-26T17:33:15.076Z,1760
2018-05-26T17:33:55.693Z,1828
2018-05-26T17:34:36.273Z,1884
2018-05-26T17:35:16.844Z,1856
2018-05-26T17:35:57.410Z,1872
2018-05-26T17:36:38.023Z,1880
2018-05-26T17:37:18.517Z,1908
2018-05-26T17:37:59.081Z,1912
2018-05-26T17:38:39.622Z,1912
2018-05-26T17:39:20.174Z,1912
2018-05-26T17:40:00.763Z,1916
2018-05-26T17:40:41.355Z,1916
2018-05-26T17:41:21.912Z,1920
2018-05-26T17:42:02.463Z,1908
2018-05-26T17:42:43.064Z,1884
2018-05-26T17:43:23.672Z,1860
2018-05-26T17:44:04.199Z,1836
2018-05-26T17:44:44.760Z,1812
2018-05-26T17:45:25.310Z,1784
2018-05-26T17:46:05.951Z,1764
2018-05-26T17:46:46.517Z,1736
2018-05-26T17:47:27.090Z,1708
2018-05-26T17:48:07.642Z,1580
2018-05-26T17:48:48.239Z,1352
2018-05-26T17:49:28.849Z,1320
2018-05-26T17:50:09.416Z,1524
2018-05-26T17:50:50.006Z,1568
2018-05-26T17:51:30.669Z,1552
2018-05-26T17:52:11.300Z,1536
2018-05-26T17:52:51.887Z,1520
2018-05-26T17:53:32.436Z,1500
2018-05-26T17:54:13.059Z,1480
2018-05-26T17:54:53.650Z,1452
2018-05-26T17:55:34.188Z,1436
2018-05-26T17:56:14.741Z,1408
2018-05-26T17:56:55.295Z,1380
2018-05-26T17:57:35.867Z,1316
2018-05-26T17:58:16.460Z,1212
2018-05-26T17:58:57.015Z,1208
2018-05-26T17:59:37.556Z,1292
2018-05-26T18:00:18.107Z,1344
2018-05-26T18:00:58.655Z,1348
2018-05-26T18:01:39.229Z,1340
2018-05-26T18:02:19.794Z,1312
2018-05-26T18:03:00.372Z,1284
2018-05-26T18:03:40.914Z,1276
2018-05-26T18:04:21.492Z,1256
2018-05-26T18:05:02.090Z,1224
2018-05-26T18:05:42.636Z,1116
2018-05-26T18:06:23.282Z,1056
2018-05-26T18:07:03.851Z,1084
2018-05-26T18:07:44.470Z,1096
2018-05-26T18:08:25.091Z,1084
2018-05-26T18:09:05.612Z,1064
2018-05-26T18:09:46.210Z,1044
2018-05-26T18:10:26.770Z,1028
2018-05-26T18:11:07.340Z,1012
2018-05-26T18:11:47.937Z,996
2018-05-26T18:12:28.528Z,984
2018-05-26T18:13:09.091Z,968
2018-05-26T18:13:49.661Z,952
2018-05-26T18:14:30.230Z,940
2018-05-26T18:15:10.811Z,924
2018-05-26T18:15:51.358Z,908
2018-05-26T18:16:31.987Z,892
2018-05-26T18:17:12.732Z,872
2018-05-26T18:17:53.272Z,856
2018-05-26T18:18:33.852Z,844
2018-05-26T18:19:14.483Z,824
2018-05-26T18:19:55.081Z,808
2018-05-26T18:20:35.750Z,788
2018-05-26T18:21:16.269Z,772
2018-05-26T18:21:56.868Z,756
2018-05-26T18:22:37.419Z,744
2018-05-26T18:23:17.986Z,728
2018-05-26T18:23:58.547Z,704
2018-05-26T18:24:39.093Z,692
2018-05-26T18:25:19.709Z,676
2018-05-26T18:26:00.489Z,664
2018-05-26T18:26:40.993Z,656
2018-05-26T18:27:21.812Z,644
2018-05-26T18:28:02.375Z,636
2018-05-26T18:28:43.001Z,620
2018-05-26T18:29:23.579Z,612
2018-05-26T18:30:04.172Z,600
2018-05-26T18:30:44.766Z,588
2018-05-26T18:31:25.437Z,580
2018-05-26T18:32:06.071Z,568
2018-05-26T18:32:46.715Z,556
2018-05-26T18:33:27.470Z,540
2018-05-26T18:34:08.030Z,532
2018-05-26T18:34:48.580Z,520
2018-05-26T18:35:29.151Z,504
2018-05-26T18:36:09.702Z,496
2018-05-26T18:36:50.290Z,484
2018-05-26T18:37:30.837Z,472
2018-05-26T18:38:11.424Z,464
2018-05-26T18:38:51.971Z,456
2018-05-26T18:39:32.526Z,444
2018-05-26T18:40:13.140Z,432
2018-05-26T18:40:53.744Z,424
2018-05-26T18:41:34.323Z,412
2018-05-26T18:42:14.894Z,408
2018-05-26T18:42:55.476Z,400
2018-05-26T18:43:36.048Z,392
2018-05-26T18:44:16.581Z,380
2018-05-26T18:44:57.137Z,372
2018-05-26T18:45:37.722Z,368
2018-05-26T18:46:18.270Z,356
2018-05-26T18:46:58.933Z,348
2018-05-26T18:47:39.464Z,340
2018-05-26T18:48:20.028Z,332
2018-05-26T18:49:00.830Z,320
2018-05-26T18:49:41.429Z,312
2018-05-26T18:50:21.978Z,300
2018-05-26T18:51:02.535Z,288
2018-05-26T18:51:43.091Z,276
2018-05-26T18:52:23.634Z,268
2018-05-26T18:53:04.215Z,252
2018-05-26T18:53:44.806Z,240
2018-05-26T18:54:25.393Z,228
2018-05-26T18:55:05.971Z,216
2018-05-26T18:55:46.534Z,208
2018-05-26T18:56:27.129Z,196
2018-05-26T18:57:07.706Z,188
2018-05-26T18:57:48.447Z,180
2018-05-26T18:58:29.046Z,172
2018-05-26T18:59:09.686Z,164
2018-05-26T18:59:50.261Z,156
2018-05-26T19:00:30.831Z,140
2018-05-26T19:01:11.410Z,132
2018-05-26T19:01:51.990Z,124
2018-05-26T19:02:32.534Z,116
2018-05-26T19:03:13.136Z,108
2018-05-26T19:03:53.700Z,104
2018-05-26T19:04:34.279Z,100
2018-05-26T19:05:14.844Z,96
2018-05-26T19:05:55.538Z,92
2018-05-26T19:06:36.167Z,92
2018-05-26T19:07:16.673Z,88
2018-05-26T19:07:57.281Z,80
2018-05-26T19:08:37.869Z,80
2018-05-26T19:09:18.409Z,76
2018-05-26T19:09:59.019Z,76
2018-05-26T19:10:39.550Z,72
2018-05-26T19:11:20.102Z,68
2018-05-26T19:12:00.657Z,64
2018-05-26T19:12:41.247Z,60
2018-05-26T19:13:21.812Z,56
2018-05-26T19:14:02.361Z,56
2018-05-26T19:14:43.001Z,52
2018-05-26T19:15:23.581Z,48
2018-05-26T19:16:04.122Z,48
2018-05-26T19:16:44.684Z,44
2018-05-26T19:17:25.232Z,44
2018-05-26T19:18:05.794Z,40
2018-05-26T19:18:46.363Z,36
2018-05-26T19:19:26.925Z,36
2018-05-26T19:20:07.524Z,32
2018-05-26T19:20:48.071Z,32
2018-05-26T19:21:28.674Z,28
2018-05-26T19:22:09.319Z,28
2018-05-26T19:22:49.927Z,28
2018-05-26T19:23:30.714Z,24
2018-05-26T19:24:11.755Z,20
2018-05-26T19:24:52.745Z,20
2018-05-26T19:25:33.479Z,20
2018-05-26T19:26:14.870Z,16
2018-05-26T19:26:55.409Z,16
2018-05-26T19:27:35.956Z,16
2018-05-26T19:28:16.531Z,16
2018-05-26T19:28:57.184Z,12
2018-05-26T19:29:37.782Z,12
2018-05-26T19:30:18.355Z,8
2018-05-26T19:30:58.996Z,8
2018-05-26T19:31:39.620Z,12
2018-05-26T19:32:20.180Z,8
2018-05-26T19:33:00.842Z,8
2018-05-26T19:33:41.419Z,8
2018-05-26T19:34:22.078Z,8
2018-05-26T19:35:02.583Z,4
2018-05-26T19:35:43.111Z,4
2018-05-26T19:36:23.717Z,4
2018-05-26T19:37:04.393Z,4
2018-05-26T19:37:44.922Z,4
2018-05-26T19:38:25.480Z,4
2018-05-26T19:39:06.077Z,4
2018-05-26T19:39:46.689Z,4
2018-05-26T19:40:27.294Z,0
2018-05-26T19:41:07.874Z,0
2018-05-26T19:41:48.513Z,0
2018-05-26T19:42:29.184Z,4
2018-05-26T19:43:09.753Z,4
2018-05-26T19:43:50.316Z,4
2018-05-26T19:44:30.886Z,0
2018-05-26T19:45:11.597Z,0
2018-05-26T19:45:52.119Z,0
2018-05-26T19:46:32.703Z,0
2018-05-26T19:47:13.255Z,0
2018-05-26T19:47:53.908Z,0
2018-05-26T19:48:34.652Z,0
2018-05-26T19:49:15.234Z,0
2018-05-26T19:49:55.826Z,0
2018-05-26T19:50:36.352Z,0
2018-05-26T19:51:16.971Z,0
2018-05-26T19:51:57.574Z,0
2018-05-26T19:52:38.083Z,0
2018-05-26T19:53:18.633Z,0
2018-05-26T19:53:59.255Z,0
2018-05-26T19:54:39.832Z,0
2018-05-26T19:55:20.381Z,0
2018-05-26T19:56:01.061Z,0
2018-05-26T19:56:41.625Z,0
2018-05-26T19:57:22.233Z,0
2018-05-26T19:58:02.782Z,0
2018-05-26T19:58:43.381Z,0
2018-05-26T19:59:23.988Z,0
2018-05-26T20:00:04.740Z,0
2018-05-26T20:00:45.357Z,0
2018-05-26T20:01:25.937Z,0
2018-05-26T20:02:06.512Z,0
2018-05-26T20:02:47.066Z,0
2018-05-26T20:03:27.639Z,0
2018-05-26T20:04:08.334Z,0
2018-05-26T20:04:48.962Z,0
2018-05-26T20:05:29.516Z,0
2018-05-26T20:06:10.173Z,0
2018-05-26T20:06:50.720Z,0
2018-05-26T20:07:31.288Z,0
2018-05-26T20:08:11.978Z,0
2018-05-26T20:08:52.552Z,0
2018-05-26T20:09:33.175Z,0
2018-05-26T20:10:13.759Z,0
2018-05-26T20:10:54.554Z,0
2018-05-26T20:11:35.081Z,0
2018-05-26T20:12:15.630Z,0
2018-05-26T20:12:56.228Z,0
2018-05-26T20:13:36.801Z,0
2018-05-26T20:14:17.363Z,0
2018-05-26T20:14:58.014Z,0
2018-05-26T20:15:38.626Z,0
2018-05-26T20:16:19.247Z,0
2018-05-26T20:16:59.804Z,0
2018-05-26T20:17:40.379Z,0
2018-05-26T20:18:21.083Z,0
2018-05-26T20:19:01.692Z,0
2018-05-26T20:19:42.262Z,0
2018-05-26T20:20:22.813Z,0
2018-05-26T20:21:03.386Z,0
2018-05-26T20:21:43.998Z,0
2018-05-26T20:22:24.630Z,0
2018-05-26T20:23:05.217Z,0
2018-05-26T20:23:45.887Z,0
2018-05-26T20:24:26.483Z,0
2018-05-26T20:25:07.025Z,0
2018-05-26T20:25:47.602Z,0
2018-05-26T20:26:28.185Z,0
2018-05-26T20:27:08.722Z,0
2018-05-26T20:27:49.320Z,0
2018-05-26T20:28:29.891Z,0
2018-05-26T20:29:10.435Z,0
2018-05-26T20:29:51.012Z,0
2018-05-26T20:30:31.648Z,0
2018-05-26T20:31:12.274Z,0
2018-05-26T20:31:52.883Z,0
2018-05-26T20:32:33.418Z,0
2018-05-26T20:33:13.977Z,0
2018-05-26T20:33:54.538Z,0
2018-05-26T20:34:35.150Z,0
2018-05-26T20:35:15.704Z,0
2018-05-26T20:35:56.268Z,0
2018-05-26T20:36:36.821Z,0
2018-05-26T20:37:17.377Z,0
2018-05-26T20:37:58.010Z,0
2018-05-26T20:38:38.517Z,0
2018-05-26T20:39:19.080Z,0
2018-05-26T20:39:59.625Z,0
2018-05-26T20:40:40.300Z,0
2018-05-26T20:41:20.842Z,0
2018-05-26T20:42:01.597Z,0
2018-05-26T20:42:42.153Z,0
2018-05-26T20:43:22.705Z,0
2018-05-26T20:44:03.258Z,0
2018-05-26T20:44:43.857Z,0
2018-05-26T20:45:24.406Z,0
2018-05-26T20:46:04.952Z,0
2018-05-26T20:46:45.502Z,0
2018-05-26T20:47:26.112Z,0
2018-05-26T20:48:06.709Z,0
2018-05-26T20:48:47.273Z,0
2018-05-26T20:49:27.867Z,0
2018-05-26T20:50:08.442Z,0
2018-05-26T20:50:48.965Z,0
2018-05-26T20:51:29.530Z,0
2018-05-26T20:52:10.128Z,0
2018-05-26T20:52:50.707Z,0
2018-05-26T20:53:31.289Z,0
2018-05-26T20:54:11.872Z,0
2018-05-26T20:54:52.456Z,0
2018-05-26T20:55:32.985Z,0
2018-05-26T20:56:13.570Z,0
2018-05-26T20:56:54.127Z,0
2018-05-26T20:57:34.694Z,0
2018-05-26T20:58:15.295Z,0
2018-05-26T20:58:55.837Z,0
2018-05-26T20:59:36.394Z,0
2018-05-26T21:00:16.991Z,0
2018-05-26T21:00:57.513Z,0
2018-05-26T21:01:38.106Z,0
2018-05-26T21:02:18.707Z,0
2018-05-26T21:02:59.252Z,0
2018-05-26T21:03:39.807Z,0
2018-05-26T21:04:20.390Z,0
2018-05-26T21:05:00.949Z,0
2018-05-26T21:05:41.596Z,0
2018-05-26T21:06:22.219Z,0
2018-05-26T21:07:02.776Z,0
2018-05-26T21:07:43.342Z,0
2018-05-26T21:08:23.907Z,0
2018-05-26T21:09:04.480Z,0
2018-05-26T21:09:45.026Z,0
2018-05-26T21:10:25.589Z,0
2018-05-26T21:11:06.207Z,0
2018-05-26T21:11:46.817Z,0
2018-05-26T21:12:27.410Z,0
2018-05-26T21:13:07.963Z,0
2018-05-26T21:13:48.525Z,0
2018-05-26T21:14:29.088Z,0
2018-05-26T21:15:09.778Z,0
2018-05-26T21:15:50.284Z,0
2018-05-26T21:16:30.902Z,0
2018-05-26T21:17:11.471Z,0
2018-05-26T21:17:52.047Z,0
2018-05-26T21:18:32.598Z,0
2018-05-26T21:19:13.192Z,0
2018-05-26T21:19:53.788Z,0
2018-05-26T21:20:34.349Z,0
2018-05-26T21:21:15.059Z,0
2018-05-26T21:21:55.536Z,0
2018-05-26T21:22:36.179Z,0
2018-05-26T21:23:16.732Z,0
2018-05-26T21:23:57.274Z,0
2018-05-26T21:24:37.858Z,0
2018-05-26T21:25:18.426Z,0
2018-05-26T21:25:58.978Z,0
2018-05-26T21:26:39.567Z,0
2018-05-26T21:27:20.312Z,0
2018-05-26T21:28:00.911Z,0
2018-05-26T21:28:41.467Z,0
2018-05-26T21:29:22.078Z,0
2018-05-26T21:30:02.618Z,0
2018-05-26T21:30:43.184Z,0
2018-05-26T21:31:23.779Z,0
2018-05-26T21:32:04.390Z,0
2018-05-26T21:32:44.953Z,0
2018-05-26T21:33:25.493Z,0
2018-05-26T21:34:06.082Z,0
2018-05-26T21:34:46.634Z,0
2018-05-26T21:35:27.218Z,0
2018-05-26T21:36:07.834Z,0
2018-05-26T21:36:48.387Z,0
2018-05-26T21:37:28.928Z,0
2018-05-26T21:38:09.577Z,0
2018-05-26T21:38:50.330Z,0
2018-05-26T21:39:30.899Z,0
2018-05-26T21:40:11.463Z,0
2018-05-26T21:40:52.039Z,0
2018-05-26T21:41:32.630Z,0
2018-05-26T21:42:13.197Z,0
2018-05-26T21:42:53.768Z,0
2018-05-26T21:43:34.342Z,0
2018-05-26T21:44:14.890Z,0
2018-05-26T21:44:55.464Z,0
2018-05-26T21:45:36.017Z,0
2018-05-26T21:46:16.574Z,0
2018-05-26T21:46:57.157Z,0
2018-05-26T21:47:37.741Z,0
2018-05-26T21:48:18.301Z,0
2018-05-26T21:48:58.874Z,0
2018-05-26T21:49:39.437Z,0
2018-05-26T21:50:20.055Z,0
2018-05-26T21:51:00.613Z,0
2018-05-26T21:51:41.134Z,0
2018-05-26T21:52:21.707Z,0
2018-05-26T21:53:02.247Z,0
2018-05-26T21:53:42.811Z,0
2018-05-26T21:54:23.394Z,0
2018-05-26T21:55:03.978Z,0
2018-05-26T21:55:44.529Z,0
2018-05-26T21:56:25.109Z,0
2018-05-26T21:57:05.649Z,0
2018-05-26T21:57:46.233Z,0
2018-05-26T21:58:26.809Z,0
2018-05-26T21:59:07.401Z,0
2018-05-26T21:59:48.010Z,0
2018-05-26T22:00:28.549Z,0
2018-05-26T22:01:09.118Z,0
2018-05-26T22:01:49.648Z,0
2018-05-26T22:02:30.219Z,0
2018-05-26T22:03:10.804Z,0
2018-05-26T22:03:51.358Z,0
2018-05-26T22:04:31.955Z,0
2018-05-26T22:05:12.515Z,0
2018-05-26T22:05:53.152Z,0
2018-05-26T22:06:33.636Z,0
2018-05-26T22:07:14.185Z,0
2018-05-26T22:07:54.764Z,0
2018-05-26T22:08:35.302Z,0
2018-05-26T22:09:15.900Z,0
2018-05-26T22:09:56.469Z,0
2018-05-26T22:10:37.011Z,0
2018-05-26T22:11:17.612Z,0
2018-05-26T22:11:58.183Z,0
2018-05-26T22:12:38.773Z,0
2018-05-26T22:13:19.317Z,0
2018-05-26T22:13:59.879Z,0
2018-05-26T22:14:40.426Z,0
2018-05-26T22:15:20.985Z,0
2018-05-26T22:16:01.546Z,0
2018-05-26T22:16:42.095Z,0
2018-05-26T22:17:22.651Z,0
2018-05-26T22:18:03.231Z,0
2018-05-26T22:18:43.841Z,0
2018-05-26T22:19:24.413Z,0
2018-05-26T22:20:04.979Z,0
2018-05-26T22:20:45.557Z,0
2018-05-26T22:21:26.131Z,0
2018-05-26T22:22:06.676Z,0
2018-05-26T22:22:47.217Z,0
2018-05-26T22:23:27.782Z,0
2018-05-26T22:24:08.310Z,0
2018-05-26T22:24:48.884Z,0
2018-05-26T22:25:29.481Z,0
2018-05-26T22:26:10.107Z,0
2018-05-26T22:26:50.702Z,0
2018-05-26T22:27:31.272Z,0
2018-05-26T22:28:11.825Z,0
2018-05-26T22:28:52.368Z,0
2018-05-26T22:29:32.936Z,0
2018-05-26T22:30:13.509Z,0
2018-05-26T22:30:54.062Z,0
2018-05-26T22:31:34.643Z,0
2018-05-26T22:32:15.250Z,0
2018-05-26T22:32:55.863Z,0
2018-05-26T22:33:36.400Z,0
2018-05-26T22:34:16.982Z,0
2018-05-26T22:34:57.572Z,0
2018-05-26T22:35:38.133Z,0
2018-05-26T22:36:18.685Z,0
2018-05-26T22:36:59.396Z,0
2018-05-26T22:37:39.818Z,0
2018-05-26T22:38:20.398Z,0
2018-05-26T22:39:00.994Z,0
2018-05-26T22:39:41.569Z,0
2018-05-26T22:40:22.147Z,0
2018-05-26T22:41:02.730Z,0
2018-05-26T22:41:43.268Z,0
2018-05-26T22:42:23.865Z,0
2018-05-26T22:43:04.583Z,0
2018-05-26T22:43:45.241Z,0
2018-05-26T22:44:25.734Z,0
2018-05-26T22:45:06.289Z,0
2018-05-26T22:45:46.844Z,0
2018-05-26T22:46:27.506Z,0
2018-05-26T22:47:08.143Z,0
2018-05-26T22:47:48.736Z,0
2018-05-26T22:48:29.351Z,0
2018-05-26T22:49:10.003Z,0
2018-05-26T22:49:50.580Z,0
2018-05-26T22:50:31.151Z,0
2018-05-26T22:51:11.707Z,0
2018-05-26T22:51:52.323Z,0
2018-05-26T22:52:32.896Z,0
2018-05-26T22:53:13.522Z,0
2018-05-26T22:53:54.217Z,0
2018-05-26T22:54:35.105Z,0
2018-05-26T22:55:15.839Z,0
2018-05-26T22:55:56.803Z,0
2018-05-26T22:56:37.348Z,0
2018-05-26T22:57:17.835Z,0
2018-05-26T22:57:58.535Z,0
2018-05-26T22:58:39.183Z,0
2018-05-26T22:59:19.737Z,0
2018-05-26T23:00:00.447Z,0
2018-05-26T23:00:40.860Z,0
2018-05-26T23:01:21.430Z,0
2018-05-26T23:02:01.983Z,0
2018-05-26T23:02:42.530Z,0
2018-05-26T23:03:23.077Z,0
2018-05-26T23:04:03.626Z,0
2018-05-26T23:04:44.178Z,0
2018-05-26T23:05:24.725Z,0
2018-05-26T23:06:05.260Z,0
2018-05-26T23:06:45.801Z,0
2018-05-26T23:07:26.345Z,0
2018-05-26T23:08:06.914Z,0
2018-05-26T23:08:47.475Z,0
2018-05-26T23:09:28.005Z,0
2018-05-26T23:10:08.554Z,0
2018-05-26T23:10:49.100Z,0
2018-05-26T23:11:29.646Z,0
2018-05-26T23:12:10.191Z,0
2018-05-26T23:12:50.742Z,0
2018-05-26T23:13:31.280Z,0
2018-05-26T23:14:11.861Z,0
2018-05-26T23:14:52.391Z,0
2018-05-26T23:15:32.949Z,0
2018-05-26T23:16:13.486Z,0
2018-05-26T23:16:54.049Z,0
2018-05-26T23:17:34.622Z,0
2018-05-26T23:18:15.200Z,0
2018-05-26T23:18:55.851Z,0
2018-05-26T23:19:36.415Z,0
2018-05-26T23:20:16.952Z,0
2018-05-26T23:20:57.511Z,0
2018-05-26T23:21:38.078Z,0
2018-05-26T23:22:18.616Z,0
2018-05-26T23:22:59.174Z,0
2018-05-26T23:23:39.740Z,0
2018-05-26T23:24:20.292Z,0
2018-05-26T23:25:00.987Z,0
2018-05-26T23:25:41.578Z,0
2018-05-26T23:26:22.138Z,0
2018-05-26T23:27:02.700Z,0
2018-05-26T23:27:43.249Z,0
2018-05-26T23:28:23.845Z,0
2018-05-26T23:29:04.385Z,0
2018-05-26T23:29:44.930Z,0
2018-05-26T23:30:25.467Z,0
2018-05-26T23:31:06.019Z,0
2018-05-26T23:31:46.567Z,0
2018-05-26T23:32:27.120Z,0
2018-05-26T23:33:07.696Z,0
2018-05-26T23:33:48.269Z,0
2018-05-26T23:34:28.821Z,0
2018-05-26T23:35:09.388Z,0
2018-05-26T23:35:49.963Z,0
2018-05-26T23:36:30.510Z,0
2018-05-26T23:37:11.176Z,0
2018-05-26T23:37:51.743Z,0
2018-05-26T23:38:32.325Z,0
2018-05-26T23:39:12.874Z,0
2018-05-26T23:39:53.419Z,0
2018-05-26T23:40:34.002Z,0
2018-05-26T23:41:14.560Z,0
2018-05-26T23:41:55.124Z,0
2018-05-26T23:42:35.662Z,0
2018-05-26T23:43:16.285Z,0
2018-05-26T23:43:56.836Z,0
2018-05-26T23:44:37.402Z,0
2018-05-26T23:45:17.965Z,0
2018-05-26T23:45:58.520Z,0
2018-05-26T23:46:39.069Z,0
2018-05-26T23:47:19.630Z,0
2018-05-26T23:48:00.210Z,0
2018-05-26T23:48:40.802Z,0
2018-05-26T23:49:21.354Z,0
2018-05-26T23:50:01.938Z,0
2018-05-26T23:50:42.501Z,0
2018-05-26T23:51:23.080Z,0
2018-05-26T23:52:03.639Z,0
2018-05-26T23:52:44.166Z,0
2018-05-26T23:53:24.707Z,0
2018-05-26T23:54:05.332Z,0
2018-05-26T23:54:45.895Z,0
2018-05-26T23:55:26.450Z,0
2018-05-26T23:56:07.000Z,0
2018-05-26T23:56:47.550Z,0
2018-05-26T23:57:28.069Z,0
2018-05-26T23:58:08.617Z,0
2018-05-26T23:58:49.173Z,0
2018-05-26T23:59:29.721Z,0
